sensor_id;sensor_type;location;lat;lon;timestamp;temperature;humidity
24436;DHT22;12616;52.470;13.436;2022-11-15T01:04:23;5.30;99.90
24436;DHT22;12616;52.470;13.436;2022-11-15T01:32:00;5.80;99.90
24436;DHT22;12616;52.470;13.436;2022-11-15T01:41:54;6.30;99.90
24436;DHT22;12616;52.470;13.436;2022-11-15T01:44:40;5.40;99.90
24436;DHT22;12616;52.470;13.436;2022-11-15T01:47:11;5.40;99.90
24436;DHT22;12616;52.470;13.436;2022-11-15T01:49:44;5.40;99.90
24436;DHT22;12616;52.470;13.436;2022-11-15T01:52:17;5.40;99.90
24436;DHT22;12616;52.470;13.436;2022-11-15T01:54:45;5.50;99.90
24436;DHT22;12616;52.470;13.436;2022-11-15T01:57:14;5.70;99.90
24436;DHT22;12616;52.470;13.436;2022-11-15T01:59:43;5.40;99.90
24436;DHT22;12616;52.470;13.436;2022-11-15T02:02:10;5.40;99.90
24436;DHT22;12616;52.470;13.436;2022-11-15T02:04:40;5.20;99.90
24436;DHT22;12616;52.470;13.436;2022-11-15T02:07:10;5.20;99.90
24436;DHT22;12616;52.470;13.436;2022-11-15T02:09:38;5.30;99.90
24436;DHT22;12616;52.470;13.436;2022-11-15T02:12:07;5.30;99.90
24436;DHT22;12616;52.470;13.436;2022-11-15T02:14:41;6.20;99.90
24436;DHT22;12616;52.470;13.436;2022-11-15T02:17:18;5.00;99.90
24436;DHT22;12616;52.470;13.436;2022-11-15T02:20:14;5.40;99.90
24436;DHT22;12616;52.470;13.436;2022-11-15T02:22:57;5.30;99.90
24436;DHT22;12616;52.470;13.436;2022-11-15T02:25:38;5.30;99.90
24436;DHT22;12616;52.470;13.436;2022-11-15T02:31:14;5.00;99.90
24436;DHT22;12616;52.470;13.436;2022-11-15T02:33:54;5.60;99.90
24436;DHT22;12616;52.470;13.436;2022-11-15T02:36:34;5.30;99.90
24436;DHT22;12616;52.470;13.436;2022-11-15T02:39:08;6.70;99.90
24436;DHT22;12616;52.470;13.436;2022-11-15T02:41:41;5.20;99.90
24436;DHT22;12616;52.470;13.436;2022-11-15T02:44:15;5.10;99.90
24436;DHT22;12616;52.470;13.436;2022-11-15T02:46:47;5.50;99.90
24436;DHT22;12616;52.470;13.436;2022-11-15T02:49:34;4.90;99.90
24436;DHT22;12616;52.470;13.436;2022-11-15T02:52:08;5.40;99.90
24436;DHT22;12616;52.470;13.436;2022-11-15T02:54:38;5.00;99.90
24436;DHT22;12616;52.470;13.436;2022-11-15T02:57:11;5.20;99.90
24436;DHT22;12616;52.470;13.436;2022-11-15T02:59:56;5.60;99.90
24436;DHT22;12616;52.470;13.436;2022-11-15T03:02:42;5.20;99.90
24436;DHT22;12616;52.470;13.436;2022-11-15T03:05:21;5.30;99.90
24436;DHT22;12616;52.470;13.436;2022-11-15T03:08:02;5.20;99.90
24436;DHT22;12616;52.470;13.436;2022-11-15T03:10:50;5.20;99.90
24436;DHT22;12616;52.470;13.436;2022-11-15T03:13:30;5.10;99.90
24436;DHT22;12616;52.470;13.436;2022-11-15T03:16:09;5.20;99.90
24436;DHT22;12616;52.470;13.436;2022-11-15T03:18:46;5.60;99.90
24436;DHT22;12616;52.470;13.436;2022-11-15T03:21:20;5.10;99.90
24436;DHT22;12616;52.470;13.436;2022-11-15T03:23:53;5.10;99.90
24436;DHT22;12616;52.470;13.436;2022-11-15T03:26:26;4.80;99.90
24436;DHT22;12616;52.470;13.436;2022-11-15T03:29:04;5.00;99.90
24436;DHT22;12616;52.470;13.436;2022-11-15T03:31:41;5.10;99.90
24436;DHT22;12616;52.470;13.436;2022-11-15T03:34:25;5.10;99.90
24436;DHT22;12616;52.470;13.436;2022-11-15T03:36:59;5.10;99.90
24436;DHT22;12616;52.470;13.436;2022-11-15T03:39:31;5.00;99.90
24436;DHT22;12616;52.470;13.436;2022-11-15T03:42:12;5.20;99.90
24436;DHT22;12616;52.470;13.436;2022-11-15T03:44:51;5.40;99.90
24436;DHT22;12616;52.470;13.436;2022-11-15T03:54:25;5.10;99.90
24436;DHT22;12616;52.470;13.436;2022-11-15T04:00:48;5.10;99.90
24436;DHT22;12616;52.470;13.436;2022-11-15T04:57:10;4.90;99.90
24436;DHT22;12616;52.470;13.436;2022-11-15T04:59:37;5.00;99.90
24436;DHT22;12616;52.470;13.436;2022-11-15T05:02:04;5.10;99.90
24436;DHT22;12616;52.470;13.436;2022-11-15T05:04:32;5.20;99.90
24436;DHT22;12616;52.470;13.436;2022-11-15T05:06:58;5.20;99.90
24436;DHT22;12616;52.470;13.436;2022-11-15T05:09:24;5.20;99.90
24436;DHT22;12616;52.470;13.436;2022-11-15T05:11:51;5.20;99.90
24436;DHT22;12616;52.470;13.436;2022-11-15T05:14:18;4.90;99.90
24436;DHT22;12616;52.470;13.436;2022-11-15T05:16:45;5.40;99.90
24436;DHT22;12616;52.470;13.436;2022-11-15T05:19:12;5.20;99.90
24436;DHT22;12616;52.470;13.436;2022-11-15T05:21:40;5.20;99.90
24436;DHT22;12616;52.470;13.436;2022-11-15T05:24:09;5.10;99.90
24436;DHT22;12616;52.470;13.436;2022-11-15T05:26:36;5.20;99.90
24436;DHT22;12616;52.470;13.436;2022-11-15T05:29:03;5.20;99.90
24436;DHT22;12616;52.470;13.436;2022-11-15T05:31:30;5.10;99.90
24436;DHT22;12616;52.470;13.436;2022-11-15T05:34:05;5.00;99.90
24436;DHT22;12616;52.470;13.436;2022-11-15T05:36:34;5.30;99.90
24436;DHT22;12616;52.470;13.436;2022-11-15T05:39:04;5.30;99.90
24436;DHT22;12616;52.470;13.436;2022-11-15T05:41:33;5.20;99.90
24436;DHT22;12616;52.470;13.436;2022-11-15T05:44:01;5.20;99.90
24436;DHT22;12616;52.470;13.436;2022-11-15T05:46:29;5.00;99.90
24436;DHT22;12616;52.470;13.436;2022-11-15T05:48:56;4.90;99.90
24436;DHT22;12616;52.470;13.436;2022-11-15T05:51:24;5.40;99.90
24436;DHT22;12616;52.470;13.436;2022-11-15T05:53:53;5.00;99.90
24436;DHT22;12616;52.470;13.436;2022-11-15T05:56:23;5.00;99.90
24436;DHT22;12616;52.470;13.436;2022-11-15T05:58:52;5.00;99.90
24436;DHT22;12616;52.470;13.436;2022-11-15T06:01:19;5.20;99.90
24436;DHT22;12616;52.470;13.436;2022-11-15T06:03:46;5.20;99.90
24436;DHT22;12616;52.470;13.436;2022-11-15T06:06:13;5.00;99.90
24436;DHT22;12616;52.470;13.436;2022-11-15T06:08:39;4.80;99.90
24436;DHT22;12616;52.470;13.436;2022-11-15T06:11:07;4.70;99.90
24436;DHT22;12616;52.470;13.436;2022-11-15T06:13:35;5.00;99.90
24436;DHT22;12616;52.470;13.436;2022-11-15T06:16:02;5.10;99.90
24436;DHT22;12616;52.470;13.436;2022-11-15T06:18:31;4.80;99.90
24436;DHT22;12616;52.470;13.436;2022-11-15T06:21:00;5.40;99.90
24436;DHT22;12616;52.470;13.436;2022-11-15T06:26:06;5.20;99.90
24436;DHT22;12616;52.470;13.436;2022-11-15T06:28:35;5.20;99.90
24436;DHT22;12616;52.470;13.436;2022-11-15T06:31:11;5.10;99.90
24436;DHT22;12616;52.470;13.436;2022-11-15T06:41:16;5.10;99.90
24436;DHT22;12616;52.470;13.436;2022-11-15T07:11:25;5.60;99.90
24436;DHT22;12616;52.470;13.436;2022-11-15T07:13:52;5.60;99.90
24436;DHT22;12616;52.470;13.436;2022-11-15T07:16:20;5.40;99.90
24436;DHT22;12616;52.470;13.436;2022-11-15T07:18:47;5.80;99.90
24436;DHT22;12616;52.470;13.436;2022-11-15T07:31:14;5.60;99.90
24436;DHT22;12616;52.470;13.436;2022-11-15T07:36:59;5.60;99.90
24436;DHT22;12616;52.470;13.436;2022-11-15T07:46:20;5.80;99.90
24436;DHT22;12616;52.470;13.436;2022-11-15T07:49:33;5.90;99.90
24436;DHT22;12616;52.470;13.436;2022-11-15T07:58:11;6.00;99.90
24436;DHT22;12616;52.470;13.436;2022-11-15T08:03:11;6.10;99.90
24436;DHT22;12616;52.470;13.436;2022-11-15T08:05:56;6.10;99.90
24436;DHT22;12616;52.470;13.436;2022-11-15T08:08:26;6.20;99.90
24436;DHT22;12616;52.470;13.436;2022-11-15T08:10:57;6.20;99.90
24436;DHT22;12616;52.470;13.436;2022-11-15T08:28:12;6.50;99.90
24436;DHT22;12616;52.470;13.436;2022-11-15T08:30:41;6.70;99.90
24436;DHT22;12616;52.470;13.436;2022-11-15T08:33:11;6.80;99.90
24436;DHT22;12616;52.470;13.436;2022-11-15T08:46:08;7.10;99.90
24436;DHT22;12616;52.470;13.436;2022-11-15T08:59:29;7.30;99.90
24436;DHT22;12616;52.470;13.436;2022-11-15T09:29:14;8.10;99.90
24436;DHT22;12616;52.470;13.436;2022-11-15T09:45:31;8.60;99.90
24436;DHT22;12616;52.470;13.436;2022-11-15T09:48:33;8.70;99.90
24436;DHT22;12616;52.470;13.436;2022-11-15T09:51:04;8.80;99.90
24436;DHT22;12616;52.470;13.436;2022-11-15T09:53:41;8.80;99.90
24436;DHT22;12616;52.470;13.436;2022-11-15T09:56:16;8.90;99.90
24436;DHT22;12616;52.470;13.436;2022-11-15T10:04:29;9.10;99.90
24436;DHT22;12616;52.470;13.436;2022-11-15T10:07:25;9.20;99.90
24436;DHT22;12616;52.470;13.436;2022-11-15T10:10:09;9.20;99.90
24436;DHT22;12616;52.470;13.436;2022-11-15T10:13:46;9.30;99.90
24436;DHT22;12616;52.470;13.436;2022-11-15T10:17:51;9.40;99.90
24436;DHT22;12616;52.470;13.436;2022-11-15T10:23:27;9.50;99.90
24436;DHT22;12616;52.470;13.436;2022-11-15T10:31:45;9.70;99.90
24436;DHT22;12616;52.470;13.436;2022-11-15T10:34:36;9.70;99.90
24436;DHT22;12616;52.470;13.436;2022-11-15T10:43:18;9.90;99.90
24436;DHT22;12616;52.470;13.436;2022-11-15T10:46:21;9.90;99.90
24436;DHT22;12616;52.470;13.436;2022-11-15T10:49:18;10.00;99.90
24436;DHT22;12616;52.470;13.436;2022-11-15T10:51:55;10.00;99.90
24436;DHT22;12616;52.470;13.436;2022-11-15T11:08:56;10.40;99.90
24436;DHT22;12616;52.470;13.436;2022-11-15T11:11:51;10.40;99.90
24436;DHT22;12616;52.470;13.436;2022-11-15T11:17:17;10.60;99.90
24436;DHT22;12616;52.470;13.436;2022-11-15T11:20:10;10.60;99.90
24436;DHT22;12616;52.470;13.436;2022-11-15T11:23:26;10.70;99.90
24436;DHT22;12616;52.470;13.436;2022-11-15T11:29:45;10.70;99.90
24436;DHT22;12616;52.470;13.436;2022-11-15T11:39:39;10.90;99.90
24436;DHT22;12616;52.470;13.436;2022-11-15T11:49:03;11.00;99.90
24436;DHT22;12616;52.470;13.436;2022-11-15T11:52:12;11.10;99.90
24436;DHT22;12616;52.470;13.436;2022-11-15T11:55:24;11.10;99.90
24436;DHT22;12616;52.470;13.436;2022-11-15T11:58:21;11.10;99.90
24436;DHT22;12616;52.470;13.436;2022-11-15T12:01:43;11.20;99.90
24436;DHT22;12616;52.470;13.436;2022-11-15T12:04:32;11.20;99.90
24436;DHT22;12616;52.470;13.436;2022-11-15T12:08:20;11.20;99.90
24436;DHT22;12616;52.470;13.436;2022-11-15T12:11:03;11.30;99.90
24436;DHT22;12616;52.470;13.436;2022-11-15T12:19:48;11.30;99.90
24436;DHT22;12616;52.470;13.436;2022-11-15T12:22:21;11.30;99.90
24436;DHT22;12616;52.470;13.436;2022-11-15T12:25:27;11.40;99.90
24436;DHT22;12616;52.470;13.436;2022-11-15T12:31:00;11.40;99.90
24436;DHT22;12616;52.470;13.436;2022-11-15T12:33:48;11.40;99.90
24436;DHT22;12616;52.470;13.436;2022-11-15T12:36:36;11.40;99.90
24436;DHT22;12616;52.470;13.436;2022-11-15T12:43:35;11.50;99.90
24436;DHT22;12616;52.470;13.436;2022-11-15T12:46:22;11.50;99.90
24436;DHT22;12616;52.470;13.436;2022-11-15T12:52:16;11.50;99.90
24436;DHT22;12616;52.470;13.436;2022-11-15T12:54:58;11.60;99.90
24436;DHT22;12616;52.470;13.436;2022-11-15T12:57:40;11.50;99.90
24436;DHT22;12616;52.470;13.436;2022-11-15T13:03:32;11.20;99.90
24436;DHT22;12616;52.470;13.436;2022-11-15T13:06:05;11.50;99.90
24436;DHT22;12616;52.470;13.436;2022-11-15T13:14:57;11.50;99.90
24436;DHT22;12616;52.470;13.436;2022-11-15T13:20:44;11.50;99.90
24436;DHT22;12616;52.470;13.436;2022-11-15T13:31:44;11.60;99.90
24436;DHT22;12616;52.470;13.436;2022-11-15T13:34:28;11.60;99.90
24436;DHT22;12616;52.470;13.436;2022-11-15T13:40:25;11.70;99.90
24436;DHT22;12616;52.470;13.436;2022-11-15T13:43:17;11.80;99.90
24436;DHT22;12616;52.470;13.436;2022-11-15T13:46:10;11.80;99.90
24436;DHT22;12616;52.470;13.436;2022-11-15T13:51:15;11.70;99.90
24436;DHT22;12616;52.470;13.436;2022-11-15T13:53:51;11.70;99.90
24436;DHT22;12616;52.470;13.436;2022-11-15T13:56:27;11.70;99.90
24436;DHT22;12616;52.470;13.436;2022-11-15T14:01:41;11.70;99.90
24436;DHT22;12616;52.470;13.436;2022-11-15T14:04:13;11.70;99.90
24436;DHT22;12616;52.470;13.436;2022-11-15T14:06:46;11.70;99.90
24436;DHT22;12616;52.470;13.436;2022-11-15T14:09:30;11.70;99.90
24436;DHT22;12616;52.470;13.436;2022-11-15T14:14:29;11.70;99.90
24436;DHT22;12616;52.470;13.436;2022-11-15T14:16:57;11.70;99.90
24436;DHT22;12616;52.470;13.436;2022-11-15T14:19:39;12.00;99.90
24436;DHT22;12616;52.470;13.436;2022-11-15T14:22:15;11.40;99.90
24436;DHT22;12616;52.470;13.436;2022-11-15T14:24:46;11.50;99.90
24436;DHT22;12616;52.470;13.436;2022-11-15T14:27:19;11.40;99.90
24436;DHT22;12616;52.470;13.436;2022-11-15T14:29:49;11.50;99.90
24436;DHT22;12616;52.470;13.436;2022-11-15T14:32:19;11.50;99.90
24436;DHT22;12616;52.470;13.436;2022-11-15T14:34:53;11.50;99.90
24436;DHT22;12616;52.470;13.436;2022-11-15T14:37:23;11.70;99.90
24436;DHT22;12616;52.470;13.436;2022-11-15T14:39:50;11.50;99.90
24436;DHT22;12616;52.470;13.436;2022-11-15T14:42:17;11.90;99.90
24436;DHT22;12616;52.470;13.436;2022-11-15T14:44:47;11.40;99.90
24436;DHT22;12616;52.470;13.436;2022-11-15T15:02:53;11.20;99.90
24436;DHT22;12616;52.470;13.436;2022-11-15T15:05:24;11.20;99.90
24436;DHT22;12616;52.470;13.436;2022-11-15T15:15:17;11.00;99.90
24436;DHT22;12616;52.470;13.436;2022-11-15T15:23:14;10.90;99.90
24436;DHT22;12616;52.470;13.436;2022-11-15T15:26:09;10.80;99.90
24436;DHT22;12616;52.470;13.436;2022-11-15T15:54:24;10.50;99.90
24436;DHT22;12616;52.470;13.436;2022-11-15T15:59:18;10.20;99.90
24436;DHT22;12616;52.470;13.436;2022-11-15T16:01:48;10.20;99.90
24436;DHT22;12616;52.470;13.436;2022-11-15T16:12:32;10.10;99.90
24436;DHT22;12616;52.470;13.436;2022-11-15T16:26:20;10.00;99.90
24436;DHT22;12616;52.470;13.436;2022-11-15T16:36:30;10.00;99.90
24436;DHT22;12616;52.470;13.436;2022-11-15T16:46:41;9.70;99.90
24436;DHT22;12616;52.470;13.436;2022-11-15T16:49:12;10.00;99.90
24436;DHT22;12616;52.470;13.436;2022-11-15T16:51:41;9.60;99.90
24436;DHT22;12616;52.470;13.436;2022-11-15T17:21:28;9.00;99.90
24436;DHT22;12616;52.470;13.436;2022-11-15T18:05:37;8.30;99.90
24436;DHT22;12616;52.470;13.436;2022-11-15T18:08:05;8.00;99.90
24436;DHT22;12616;52.470;13.436;2022-11-15T18:10:32;8.40;99.90
24436;DHT22;12616;52.470;13.436;2022-11-15T18:12:59;8.20;99.90
24436;DHT22;12616;52.470;13.436;2022-11-15T18:15:27;8.10;99.90
24436;DHT22;12616;52.470;13.436;2022-11-15T18:17:54;8.10;99.90
24436;DHT22;12616;52.470;13.436;2022-11-15T18:20:21;8.10;99.90
24436;DHT22;12616;52.470;13.436;2022-11-15T18:22:47;8.20;99.90
24436;DHT22;12616;52.470;13.436;2022-11-15T18:25:14;7.60;99.90
24436;DHT22;12616;52.470;13.436;2022-11-15T18:27:43;8.30;99.90
24436;DHT22;12616;52.470;13.436;2022-11-15T18:30:11;8.10;99.90
24436;DHT22;12616;52.470;13.436;2022-11-15T18:32:39;8.00;99.90
24436;DHT22;12616;52.470;13.436;2022-11-15T18:35:06;7.90;99.90
24436;DHT22;12616;52.470;13.436;2022-11-15T18:37:33;7.90;99.90
24436;DHT22;12616;52.470;13.436;2022-11-15T18:42:42;7.90;99.90
24436;DHT22;12616;52.470;13.436;2022-11-15T18:45:10;7.80;99.90
24436;DHT22;12616;52.470;13.436;2022-11-15T18:47:43;8.70;99.90
24436;DHT22;12616;52.470;13.436;2022-11-15T19:29:02;7.20;99.90
24436;DHT22;12616;52.470;13.436;2022-11-15T20:14:52;6.70;99.90
24436;DHT22;12616;52.470;13.436;2022-11-15T20:30:45;6.80;99.90
24436;DHT22;12616;52.470;13.436;2022-11-15T20:52:26;6.70;99.90
24436;DHT22;12616;52.470;13.436;2022-11-15T21:05:52;6.70;99.90
24436;DHT22;12616;52.470;13.436;2022-11-15T21:11:52;6.70;99.90
24436;DHT22;12616;52.470;13.436;2022-11-15T21:30:45;6.60;99.90
24436;DHT22;12616;52.470;13.436;2022-11-15T21:58:27;6.50;99.90
24436;DHT22;12616;52.470;13.436;2022-11-15T22:10:24;6.40;99.90
24436;DHT22;12616;52.470;13.436;2022-11-15T23:16:10;6.00;99.90
24436;DHT22;12616;52.470;13.436;2022-11-15T23:41:32;6.00;99.90
